Big Bear Station Historical Data
Daily Summary for March 8, 2018 Units:  Both    English   Metric
Next Day »
Daily Weekly Monthly Yearly Custom
  High: Low: Average:
Temperature: 56.3 °F /  13.5 °C 29.8 °F /  -1.2 °C 41.5 °F /  5.3 °C
Dew Point: 29.1 °F /  -1.6 °C 13.2 °F /  -10.4 °C 22 °F /  -5.6 °C
Humidity: 74% 20% 49%
Wind Speed: 7.3mph /  11.7km/h - 1.4mph /  2.3km/h
Wind Gust: -999.0mph /  -1607.7km/h - -
Wind- - West
Pressure: 23.55 in /  797.4 hPa 23.49 in /  795.4 hPa -
Precipitation: 0.00 in /  0 mm    
Historical Graphs
 
 
Tabular Data for March 8, 2018
Time Temperature Dew Point Pressure Wind Wind Speed Wind Gust Humidity Rainfall Rate (Hourly)
00:08 32.5 °F /  0.3 °C 15.9 °F /  -8.9 °C 23.53in /  796.7hPa Calm   -999.0mph /  -1607.7km/h 50% 0in /  0mm
00:23 32.5 °F /  0.3 °C 15.4 °F /  -9.2 °C 23.53in /  796.7hPa Calm   -999.0mph /  -1607.7km/h 49% 0in /  0mm
00:38 32.2 °F /  0.1 °C 17.0 °F /  -8.3 °C 23.53in /  796.7hPa Calm   -999.0mph /  -1607.7km/h 53% 0in /  0mm
00:54 32.2 °F /  0.1 °C 17.0 °F /  -8.3 °C 23.52in /  796.4hPa Calm   -999.0mph /  -1607.7km/h 53% 0in /  0mm
01:09 32.0 °F /  0 °C 15.4 °F /  -9.2 °C 23.52in /  796.4hPa Calm   -999.0mph /  -1607.7km/h 50% 0in /  0mm
01:24 32.4 °F /  0.2 °C 15.8 °F /  -9 °C 23.52in /  796.4hPa Calm   -999.0mph /  -1607.7km/h 50% 0in /  0mm
01:39 31.8 °F /  -0.1 °C 15.3 °F /  -9.3 °C 23.52in /  796.4hPa Calm   -999.0mph /  -1607.7km/h 50% 0in /  0mm
01:54 31.5 °F /  -0.3 °C 17.2 °F /  -8.2 °C 23.52in /  796.4hPa Calm   -999.0mph /  -1607.7km/h 55% 0in /  0mm
02:10 31.1 °F /  -0.5 °C 13.2 °F /  -10.4 °C 23.52in /  796.4hPa Calm   -999.0mph /  -1607.7km/h 47% 0in /  0mm
02:25 31.1 °F /  -0.5 °C 16.0 °F /  -8.9 °C 23.51in /  796hPa Calm   -999.0mph /  -1607.7km/h 53% 0in /  0mm
02:40 30.9 °F /  -0.6 °C 20.1 °F /  -6.6 °C 23.52in /  796.4hPa Calm   -999.0mph /  -1607.7km/h 64% 0in /  0mm
02:55 31.3 °F /  -0.4 °C 20.9 °F /  -6.2 °C 23.51in /  796hPa Calm   -999.0mph /  -1607.7km/h 65% 0in /  0mm
03:11 30.6 °F /  -0.8 °C 18.7 °F /  -7.4 °C 23.51in /  796hPa Calm   -999.0mph /  -1607.7km/h 61% 0in /  0mm
03:26 30.4 °F /  -0.9 °C 18.2 °F /  -7.7 °C 23.51in /  796hPa Calm   -999.0mph /  -1607.7km/h 60% 0in /  0mm
03:41 30.4 °F /  -0.9 °C 14.0 °F /  -10 °C 23.51in /  796hPa Calm   -999.0mph /  -1607.7km/h 50% 0in /  0mm
03:56 29.8 °F /  -1.2 °C 15.2 °F /  -9.3 °C 23.51in /  796hPa Calm   -999.0mph /  -1607.7km/h 54% 0in /  0mm
04:11 30.4 °F /  -0.9 °C 17.0 °F /  -8.3 °C 23.51in /  796hPa Calm   -999.0mph /  -1607.7km/h 57% 0in /  0mm
04:27 30.7 °F /  -0.7 °C 16.0 °F /  -8.9 °C 23.51in /  796hPa Calm   -999.0mph /  -1607.7km/h 54% 0in /  0mm
04:42 29.8 °F /  -1.2 °C 16.4 °F /  -8.7 °C 23.51in /  796hPa Calm   -999.0mph /  -1607.7km/h 57% 0in /  0mm
04:57 30.0 °F /  -1.1 °C 18.6 °F /  -7.4 °C 23.50in /  795.7hPa Calm   -999.0mph /  -1607.7km/h 62% 0in /  0mm
05:12 30.2 °F /  -1 °C 20.9 °F /  -6.2 °C 23.51in /  796hPa Calm   -999.0mph /  -1607.7km/h 68% 0in /  0mm
05:27 29.8 °F /  -1.2 °C 20.5 °F /  -6.4 °C 23.51in /  796hPa Calm   -999.0mph /  -1607.7km/h 68% 0in /  0mm
05:43 30.4 °F /  -0.9 °C 21.8 °F /  -5.7 °C 23.51in /  796hPa Calm   -999.0mph /  -1607.7km/h 70% 0in /  0mm
05:58 30.4 °F /  -0.9 °C 21.1 °F /  -6.1 °C 23.51in /  796hPa Calm   -999.0mph /  -1607.7km/h 68% 0in /  0mm
06:13 30.4 °F /  -0.9 °C 22.1 °F /  -5.5 °C 23.51in /  796hPa Calm   -999.0mph /  -1607.7km/h 71% 0in /  0mm
06:28 30.6 °F /  -0.8 °C 22.6 °F /  -5.2 °C 23.51in /  796hPa Calm   -999.0mph /  -1607.7km/h 72% 0in /  0mm
06:43 30.9 °F /  -0.6 °C 21.9 °F /  -5.6 °C 23.52in /  796.4hPa Calm   -999.0mph /  -1607.7km/h 69% 0in /  0mm
06:59 30.7 °F /  -0.7 °C 21.4 °F /  -5.9 °C 23.53in /  796.7hPa Calm   -999.0mph /  -1607.7km/h 68% 0in /  0mm
07:14 31.3 °F /  -0.4 °C 22.7 °F /  -5.2 °C 23.53in /  796.7hPa Calm   -999.0mph /  -1607.7km/h 70% 0in /  0mm
07:29 33.3 °F /  0.7 °C 24.2 °F /  -4.3 °C 23.53in /  796.7hPa Calm   -999.0mph /  -1607.7km/h 69% 0in /  0mm
07:44 33.6 °F /  0.9 °C 24.9 °F /  -3.9 °C 23.53in /  796.7hPa Calm   -999.0mph /  -1607.7km/h 70% 0in /  0mm
07:59 34.0 °F /  1.1 °C 24.5 °F /  -4.2 °C 23.53in /  796.7hPa Calm   -999.0mph /  -1607.7km/h 68% 0in /  0mm
08:15 34.9 °F /  1.6 °C 25.1 °F /  -3.8 °C 23.54in /  797.1hPa Calm   -999.0mph /  -1607.7km/h 67% 0in /  0mm
08:31 36.0 °F /  2.2 °C 25.7 °F /  -3.5 °C 23.54in /  797.1hPa SSE 1.1mph /  1.8km/h -999.0mph /  -1607.7km/h 66% 0in /  0mm
08:46 38.8 °F /  3.8 °C 27.7 °F /  -2.4 °C 23.54in /  797.1hPa Calm   -999.0mph /  -1607.7km/h 64% 0in /  0mm
09:01 42.8 °F /  6 °C 26.4 °F /  -3.1 °C 23.54in /  797.1hPa Calm   -999.0mph /  -1607.7km/h 52% 0in /  0mm
09:16 46.0 °F /  7.8 °C 25.8 °F /  -3.4 °C 23.54in /  797.1hPa Calm   -999.0mph /  -1607.7km/h 45% 0in /  0mm
09:31 47.7 °F /  8.7 °C 27.9 °F /  -2.3 °C 23.55in /  797.4hPa NNW 2.2mph /  3.5km/h -999.0mph /  -1607.7km/h 46% 0in /  0mm
09:47 49.1 °F /  9.5 °C 27.6 °F /  -2.4 °C 23.55in /  797.4hPa NNW 4.2mph /  6.8km/h -999.0mph /  -1607.7km/h 43% 0in /  0mm
10:02 49.8 °F /  9.9 °C 28.2 °F /  -2.1 °C 23.55in /  797.4hPa NW 4.2mph /  6.8km/h -999.0mph /  -1607.7km/h 43% 0in /  0mm
10:17 49.1 °F /  9.5 °C 28.7 °F /  -1.8 °C 23.55in /  797.4hPa NW 3.2mph /  5.1km/h -999.0mph /  -1607.7km/h 45% 0in /  0mm
10:33 50.2 °F /  10.1 °C 29.1 °F /  -1.6 °C 23.55in /  797.4hPa NW 2.2mph /  3.5km/h -999.0mph /  -1607.7km/h 44% 0in /  0mm
10:48 52.7 °F /  11.5 °C 27.8 °F /  -2.3 °C 23.55in /  797.4hPa Calm   -999.0mph /  -1607.7km/h 38% 0in /  0mm
11:03 53.1 °F /  11.7 °C 26.8 °F /  -2.9 °C 23.54in /  797.1hPa NNW 4.7mph /  7.6km/h -999.0mph /  -1607.7km/h 36% 0in /  0mm
11:18 53.1 °F /  11.7 °C 26.2 °F /  -3.2 °C 23.54in /  797.1hPa NW 2.7mph /  4.3km/h -999.0mph /  -1607.7km/h 35% 0in /  0mm
11:33 53.6 °F /  12 °C 28.6 °F /  -1.9 °C 23.54in /  797.1hPa Calm   -999.0mph /  -1607.7km/h 38% 0in /  0mm
11:49 55.2 °F /  12.9 °C 27.3 °F /  -2.6 °C 23.54in /  797.1hPa NW 3.2mph /  5.1km/h -999.0mph /  -1607.7km/h 34% 0in /  0mm
12:04 55.2 °F /  12.9 °C 26.6 °F /  -3 °C 23.53in /  796.7hPa West 2.2mph /  3.5km/h -999.0mph /  -1607.7km/h 33% 0in /  0mm
12:19 56.3 °F /  13.5 °C 25.2 °F /  -3.8 °C 23.53in /  796.7hPa NNE 3.7mph /  6km/h -999.0mph /  -1607.7km/h 30% 0in /  0mm
12:34 55.8 °F /  13.2 °C 26.4 °F /  -3.1 °C 23.53in /  796.7hPa NW 2.7mph /  4.3km/h -999.0mph /  -1607.7km/h 32% 0in /  0mm
12:49 55.6 °F /  13.1 °C 17.3 °F /  -8.2 °C 23.52in /  796.4hPa NNW 2.7mph /  4.3km/h -999.0mph /  -1607.7km/h 22% 0in /  0mm
13:05 54.9 °F /  12.7 °C 22.4 °F /  -5.3 °C 23.51in /  796hPa NW 3.2mph /  5.1km/h -999.0mph /  -1607.7km/h 28% 0in /  0mm
13:20 56.3 °F /  13.5 °C 19.9 °F /  -6.7 °C 23.51in /  796hPa NNW 6.8mph /  10.9km/h -999.0mph /  -1607.7km/h 24% 0in /  0mm
13:35 54.9 °F /  12.7 °C 22.4 °F /  -5.3 °C 23.51in /  796hPa WNW 3.7mph /  6km/h -999.0mph /  -1607.7km/h 28% 0in /  0mm
13:51 54.5 °F /  12.5 °C 22.9 °F /  -5.1 °C 23.50in /  795.7hPa NW 4.7mph /  7.6km/h -999.0mph /  -1607.7km/h 29% 0in /  0mm
14:06 54.7 °F /  12.6 °C 19.5 °F /  -6.9 °C 23.50in /  795.7hPa NNW 7.3mph /  11.7km/h -999.0mph /  -1607.7km/h 25% 0in /  0mm
14:21 55.6 °F /  13.1 °C 15.1 °F /  -9.4 °C 23.50in /  795.7hPa NE 1.1mph /  1.8km/h -999.0mph /  -1607.7km/h 20% 0in /  0mm
14:36 55.2 °F /  12.9 °C 20.0 °F /  -6.7 °C 23.50in /  795.7hPa NW 5.3mph /  8.5km/h -999.0mph /  -1607.7km/h 25% 0in /  0mm
14:51 54.5 °F /  12.5 °C 23.7 °F /  -4.6 °C 23.50in /  795.7hPa WNW 5.8mph /  9.3km/h -999.0mph /  -1607.7km/h 30% 0in /  0mm
15:07 53.8 °F /  12.1 °C 23.8 °F /  -4.6 °C 23.50in /  795.7hPa NW 4.7mph /  7.6km/h -999.0mph /  -1607.7km/h 31% 0in /  0mm
15:22 53.8 °F /  12.1 °C 22.3 °F /  -5.4 °C 23.50in /  795.7hPa NW 5.3mph /  8.5km/h -999.0mph /  -1607.7km/h 29% 0in /  0mm
15:37 53.2 °F /  11.8 °C 25.5 °F /  -3.6 °C 23.49in /  795.4hPa NNW 5.3mph /  8.5km/h -999.0mph /  -1607.7km/h 34% 0in /  0mm
15:52 52.3 °F /  11.3 °C 25.4 °F /  -3.7 °C 23.49in /  795.4hPa WNW 5.8mph /  9.3km/h -999.0mph /  -1607.7km/h 35% 0in /  0mm
16:07 52.2 °F /  11.2 °C 20.9 °F /  -6.2 °C 23.50in /  795.7hPa NW 2.7mph /  4.3km/h -999.0mph /  -1607.7km/h 29% 0in /  0mm
16:23 52.7 °F /  11.5 °C 16.9 °F /  -8.4 °C 23.49in /  795.4hPa NW 6.8mph /  10.9km/h -999.0mph /  -1607.7km/h 24% 0in /  0mm
16:38 51.1 °F /  10.6 °C 17.4 °F /  -8.1 °C 23.49in /  795.4hPa Calm   -999.0mph /  -1607.7km/h 26% 0in /  0mm
16:53 50.4 °F /  10.2 °C 20.1 °F /  -6.6 °C 23.49in /  795.4hPa NW 1.1mph /  1.8km/h -999.0mph /  -1607.7km/h 30% 0in /  0mm
17:09 49.5 °F /  9.7 °C 19.3 °F /  -7.1 °C 23.49in /  795.4hPa Calm   -999.0mph /  -1607.7km/h 30% 0in /  0mm
17:24 48.7 °F /  9.3 °C 20.1 °F /  -6.6 °C 23.49in /  795.4hPa South 1.1mph /  1.8km/h -999.0mph /  -1607.7km/h 32% 0in /  0mm
17:39 48.0 °F /  8.9 °C 19.5 °F /  -6.9 °C 23.49in /  795.4hPa SSW 1.7mph /  2.7km/h -999.0mph /  -1607.7km/h 32% 0in /  0mm
17:54 47.3 °F /  8.5 °C 19.6 °F /  -6.9 °C 23.49in /  795.4hPa SSW 2.7mph /  4.3km/h -999.0mph /  -1607.7km/h 33% 0in /  0mm
18:09 46.9 °F /  8.3 °C 20.7 °F /  -6.3 °C 23.49in /  795.4hPa NW 5.3mph /  8.5km/h -999.0mph /  -1607.7km/h 35% 0in /  0mm
18:25 46.4 °F /  8 °C 20.2 °F /  -6.6 °C 23.50in /  795.7hPa WSW 1.7mph /  2.7km/h -999.0mph /  -1607.7km/h 35% 0in /  0mm
18:40 45.9 °F /  7.7 °C 20.4 °F /  -6.4 °C 23.50in /  795.7hPa Calm   -999.0mph /  -1607.7km/h 36% 0in /  0mm
18:57 45.5 °F /  7.5 °C 20.7 °F /  -6.3 °C 23.50in /  795.7hPa Calm   -999.0mph /  -1607.7km/h 37% 0in /  0mm
19:13 45.1 °F /  7.3 °C 19.7 °F /  -6.8 °C 23.50in /  795.7hPa NNW 1.7mph /  2.7km/h -999.0mph /  -1607.7km/h 36% 0in /  0mm
19:28 44.2 °F /  6.8 °C 20.2 °F /  -6.6 °C 23.50in /  795.7hPa South 1.1mph /  1.8km/h -999.0mph /  -1607.7km/h 38% 0in /  0mm
19:43 43.7 °F /  6.5 °C 23.2 °F /  -4.9 °C 23.50in /  795.7hPa NNE 1.7mph /  2.7km/h -999.0mph /  -1607.7km/h 44% 0in /  0mm
19:58 43.3 °F /  6.3 °C 24.4 °F /  -4.2 °C 23.50in /  795.7hPa Calm   -999.0mph /  -1607.7km/h 47% 0in /  0mm
20:14 42.8 °F /  6 °C 24.9 °F /  -3.9 °C 23.51in /  796hPa Calm   -999.0mph /  -1607.7km/h 49% 0in /  0mm
20:29 41.9 °F /  5.5 °C 25.1 °F /  -3.8 °C 23.51in /  796hPa Calm   -999.0mph /  -1607.7km/h 51% 0in /  0mm
20:45 41.0 °F /  5 °C 24.7 °F /  -4.1 °C 23.51in /  796hPa Calm   -999.0mph /  -1607.7km/h 52% 0in /  0mm
21:00 40.1 °F /  4.5 °C 25.2 °F /  -3.8 °C 23.51in /  796hPa Calm   -999.0mph /  -1607.7km/h 55% 0in /  0mm
21:15 38.8 °F /  3.8 °C 24.9 °F /  -3.9 °C 23.51in /  796hPa Calm   -999.0mph /  -1607.7km/h 57% 0in /  0mm
21:30 38.1 °F /  3.4 °C 25.4 °F /  -3.7 °C 23.51in /  796hPa SSE 1.1mph /  1.8km/h -999.0mph /  -1607.7km/h 60% 0in /  0mm
21:45 37.2 °F /  2.9 °C 25.4 °F /  -3.7 °C 23.51in /  796hPa Calm   -999.0mph /  -1607.7km/h 62% 0in /  0mm
22:01 36.3 °F /  2.4 °C 25.3 °F /  -3.7 °C 23.51in /  796hPa Calm   -999.0mph /  -1607.7km/h 64% 0in /  0mm
22:16 35.4 °F /  1.9 °C 24.4 °F /  -4.2 °C 23.50in /  795.7hPa Calm   -999.0mph /  -1607.7km/h 64% 0in /  0mm
22:31 34.7 °F /  1.5 °C 24.9 °F /  -3.9 °C 23.50in /  795.7hPa Calm   -999.0mph /  -1607.7km/h 67% 0in /  0mm
22:46 34.3 °F /  1.3 °C 24.8 °F /  -4 °C 23.50in /  795.7hPa Calm   -999.0mph /  -1607.7km/h 68% 0in /  0mm
23:01 34.0 °F /  1.1 °C 25.2 °F /  -3.8 °C 23.49in /  795.4hPa Calm   -999.0mph /  -1607.7km/h 70% 0in /  0mm
23:17 33.6 °F /  0.9 °C 25.2 °F /  -3.8 °C 23.49in /  795.4hPa North 1.7mph /  2.7km/h -999.0mph /  -1607.7km/h 71% 0in /  0mm
23:32 33.3 °F /  0.7 °C 25.6 °F /  -3.6 °C 23.49in /  795.4hPa Calm   -999.0mph /  -1607.7km/h 73% 0in /  0mm
23:47 33.4 °F /  0.8 °C 26.0 °F /  -3.3 °C 23.49in /  795.4hPa Calm   -999.0mph /  -1607.7km/h 74% 0in /  0mm
Big Bear CA Weather